sensor_id;sensor_type;location;lat;lon;timestamp;temperature;humidity
40023;DHT22;25713;-35.352;149.036;2023-04-24T00:01:29;17.30;84.60
40023;DHT22;25713;-35.352;149.036;2023-04-24T00:03:58;17.40;84.20
40023;DHT22;25713;-35.352;149.036;2023-04-24T00:06:28;17.40;83.70
40023;DHT22;25713;-35.352;149.036;2023-04-24T00:08:57;17.50;81.80
40023;DHT22;25713;-35.352;149.036;2023-04-24T00:11:27;17.50;81.70
40023;DHT22;25713;-35.352;149.036;2023-04-24T00:13:56;17.50;80.40
40023;DHT22;25713;-35.352;149.036;2023-04-24T00:16:26;17.50;81.20
40023;DHT22;25713;-35.352;149.036;2023-04-24T00:18:57;17.60;80.40
40023;DHT22;25713;-35.352;149.036;2023-04-24T00:21:27;17.60;81.70
40023;DHT22;25713;-35.352;149.036;2023-04-24T00:23:56;17.50;82.60
40023;DHT22;25713;-35.352;149.036;2023-04-24T00:26:25;17.50;82.70
40023;DHT22;25713;-35.352;149.036;2023-04-24T00:28:55;17.60;82.00
40023;DHT22;25713;-35.352;149.036;2023-04-24T00:31:24;17.70;81.40
40023;DHT22;25713;-35.352;149.036;2023-04-24T00:33:56;17.70;80.20
40023;DHT22;25713;-35.352;149.036;2023-04-24T00:36:25;17.80;80.10
40023;DHT22;25713;-35.352;149.036;2023-04-24T00:38:55;17.80;79.70
40023;DHT22;25713;-35.352;149.036;2023-04-24T00:41:24;17.90;79.50
40023;DHT22;25713;-35.352;149.036;2023-04-24T00:43:54;17.90;78.70
40023;DHT22;25713;-35.352;149.036;2023-04-24T00:46:24;17.90;79.30
40023;DHT22;25713;-35.352;149.036;2023-04-24T00:48:55;17.90;79.90
40023;DHT22;25713;-35.352;149.036;2023-04-24T00:51:25;18.00;78.90
40023;DHT22;25713;-35.352;149.036;2023-04-24T00:53:54;18.00;79.00
40023;DHT22;25713;-35.352;149.036;2023-04-24T00:56:24;18.00;78.70
40023;DHT22;25713;-35.352;149.036;2023-04-24T00:58:53;18.00;78.60
40023;DHT22;25713;-35.352;149.036;2023-04-24T01:01:23;18.10;79.90
40023;DHT22;25713;-35.352;149.036;2023-04-24T01:03:56;18.10;79.70
40023;DHT22;25713;-35.352;149.036;2023-04-24T01:06:29;18.20;78.60
40023;DHT22;25713;-35.352;149.036;2023-04-24T01:08:58;18.20;79.40
40023;DHT22;25713;-35.352;149.036;2023-04-24T01:11:28;18.20;79.10
40023;DHT22;25713;-35.352;149.036;2023-04-24T01:13:58;18.20;79.40
40023;DHT22;25713;-35.352;149.036;2023-04-24T01:16:27;18.20;79.30
40023;DHT22;25713;-35.352;149.036;2023-04-24T01:18:58;18.30;77.80
40023;DHT22;25713;-35.352;149.036;2023-04-24T01:21:29;18.40;78.30
40023;DHT22;25713;-35.352;149.036;2023-04-24T01:24:01;18.40;77.30
40023;DHT22;25713;-35.352;149.036;2023-04-24T01:26:31;18.40;76.80
40023;DHT22;25713;-35.352;149.036;2023-04-24T01:29:00;18.40;77.40
40023;DHT22;25713;-35.352;149.036;2023-04-24T01:31:30;18.50;78.00
40023;DHT22;25713;-35.352;149.036;2023-04-24T01:33:59;18.50;77.90
40023;DHT22;25713;-35.352;149.036;2023-04-24T01:36:30;18.50;78.20
40023;DHT22;25713;-35.352;149.036;2023-04-24T01:39:01;18.50;78.90
40023;DHT22;25713;-35.352;149.036;2023-04-24T01:41:31;18.50;78.40
40023;DHT22;25713;-35.352;149.036;2023-04-24T01:44:00;18.60;78.40
40023;DHT22;25713;-35.352;149.036;2023-04-24T01:46:30;18.60;78.80
40023;DHT22;25713;-35.352;149.036;2023-04-24T01:49:01;18.60;79.80
40023;DHT22;25713;-35.352;149.036;2023-04-24T01:51:31;18.50;80.50
40023;DHT22;25713;-35.352;149.036;2023-04-24T01:54:02;18.50;80.30
40023;DHT22;25713;-35.352;149.036;2023-04-24T01:56:32;18.60;79.50
40023;DHT22;25713;-35.352;149.036;2023-04-24T01:59:03;18.70;78.20
40023;DHT22;25713;-35.352;149.036;2023-04-24T02:01:35;18.70;78.70
40023;DHT22;25713;-35.352;149.036;2023-04-24T02:04:05;18.70;78.20
40023;DHT22;25713;-35.352;149.036;2023-04-24T02:06:37;18.80;78.90
40023;DHT22;25713;-35.352;149.036;2023-04-24T02:09:08;18.80;79.10
40023;DHT22;25713;-35.352;149.036;2023-04-24T02:11:38;18.90;78.90
40023;DHT22;25713;-35.352;149.036;2023-04-24T02:14:07;18.90;77.70
40023;DHT22;25713;-35.352;149.036;2023-04-24T02:16:36;19.00;76.60
40023;DHT22;25713;-35.352;149.036;2023-04-24T02:19:06;19.00;75.00
40023;DHT22;25713;-35.352;149.036;2023-04-24T02:21:35;19.10;75.00
40023;DHT22;25713;-35.352;149.036;2023-04-24T02:24:07;19.10;74.30
40023;DHT22;25713;-35.352;149.036;2023-04-24T02:26:36;19.20;73.80
40023;DHT22;25713;-35.352;149.036;2023-04-24T02:29:05;19.20;75.00
40023;DHT22;25713;-35.352;149.036;2023-04-24T02:31:35;19.30;75.10
40023;DHT22;25713;-35.352;149.036;2023-04-24T02:34:04;19.30;73.80
40023;DHT22;25713;-35.352;149.036;2023-04-24T02:36:34;19.30;74.60
40023;DHT22;25713;-35.352;149.036;2023-04-24T02:39:03;19.40;73.40
40023;DHT22;25713;-35.352;149.036;2023-04-24T02:41:36;19.40;74.80
40023;DHT22;25713;-35.352;149.036;2023-04-24T02:44:06;19.40;73.80
40023;DHT22;25713;-35.352;149.036;2023-04-24T02:46:35;19.40;73.10
40023;DHT22;25713;-35.352;149.036;2023-04-24T02:49:04;19.50;72.40
40023;DHT22;25713;-35.352;149.036;2023-04-24T02:51:34;19.40;73.00
40023;DHT22;25713;-35.352;149.036;2023-04-24T02:54:03;19.50;72.80
40023;DHT22;25713;-35.352;149.036;2023-04-24T02:56:35;19.50;72.30
40023;DHT22;25713;-35.352;149.036;2023-04-24T02:59:05;19.60;72.20
40023;DHT22;25713;-35.352;149.036;2023-04-24T03:01:35;19.60;70.70
40023;DHT22;25713;-35.352;149.036;2023-04-24T03:04:05;19.60;71.90
40023;DHT22;25713;-35.352;149.036;2023-04-24T03:06:34;19.60;73.40
40023;DHT22;25713;-35.352;149.036;2023-04-24T03:09:04;19.60;74.10
40023;DHT22;25713;-35.352;149.036;2023-04-24T03:11:36;19.60;73.20
40023;DHT22;25713;-35.352;149.036;2023-04-24T03:14:05;19.50;74.20
40023;DHT22;25713;-35.352;149.036;2023-04-24T03:16:34;19.60;73.30
40023;DHT22;25713;-35.352;149.036;2023-04-24T03:19:03;19.60;73.00
40023;DHT22;25713;-35.352;149.036;2023-04-24T03:21:36;19.60;71.50
40023;DHT22;25713;-35.352;149.036;2023-04-24T03:24:06;19.60;72.50
40023;DHT22;25713;-35.352;149.036;2023-04-24T03:26:37;19.60;72.10
40023;DHT22;25713;-35.352;149.036;2023-04-24T03:29:29;19.60;73.30
40023;DHT22;25713;-35.352;149.036;2023-04-24T03:31:59;19.60;72.70
40023;DHT22;25713;-35.352;149.036;2023-04-24T03:34:28;19.70;70.30
40023;DHT22;25713;-35.352;149.036;2023-04-24T03:36:59;19.70;68.50
40023;DHT22;25713;-35.352;149.036;2023-04-24T03:39:29;19.70;67.70
40023;DHT22;25713;-35.352;149.036;2023-04-24T03:42:01;19.70;68.60
40023;DHT22;25713;-35.352;149.036;2023-04-24T03:44:41;19.70;71.10
40023;DHT22;25713;-35.352;149.036;2023-04-24T03:47:11;19.70;69.40
40023;DHT22;25713;-35.352;149.036;2023-04-24T03:49:41;19.70;70.20
40023;DHT22;25713;-35.352;149.036;2023-04-24T03:52:11;19.70;68.80
40023;DHT22;25713;-35.352;149.036;2023-04-24T03:54:41;19.80;70.80
40023;DHT22;25713;-35.352;149.036;2023-04-24T03:57:12;19.80;68.60
40023;DHT22;25713;-35.352;149.036;2023-04-24T03:59:52;19.80;70.70
40023;DHT22;25713;-35.352;149.036;2023-04-24T04:02:22;19.80;68.20
40023;DHT22;25713;-35.352;149.036;2023-04-24T04:04:51;19.80;70.70
40023;DHT22;25713;-35.352;149.036;2023-04-24T04:07:21;19.80;69.50
40023;DHT22;25713;-35.352;149.036;2023-04-24T04:09:50;19.90;69.90
40023;DHT22;25713;-35.352;149.036;2023-04-24T04:12:22;19.90;69.70
40023;DHT22;25713;-35.352;149.036;2023-04-24T04:14:51;19.90;71.50
40023;DHT22;25713;-35.352;149.036;2023-04-24T04:17:21;19.90;69.20
40023;DHT22;25713;-35.352;149.036;2023-04-24T04:19:50;19.90;70.60
40023;DHT22;25713;-35.352;149.036;2023-04-24T04:22:20;19.90;70.30
40023;DHT22;25713;-35.352;149.036;2023-04-24T04:24:52;19.90;71.00
40023;DHT22;25713;-35.352;149.036;2023-04-24T04:27:26;19.90;70.40
40023;DHT22;25713;-35.352;149.036;2023-04-24T04:30:03;19.90;71.10
40023;DHT22;25713;-35.352;149.036;2023-04-24T04:32:39;20.00;70.90
40023;DHT22;25713;-35.352;149.036;2023-04-24T04:35:08;20.00;69.60
40023;DHT22;25713;-35.352;149.036;2023-04-24T04:37:38;20.00;69.30
40023;DHT22;25713;-35.352;149.036;2023-04-24T04:40:22;20.00;68.70
40023;DHT22;25713;-35.352;149.036;2023-04-24T04:42:59;20.00;69.20
40023;DHT22;25713;-35.352;149.036;2023-04-24T04:45:32;20.00;69.80
40023;DHT22;25713;-35.352;149.036;2023-04-24T04:48:19;20.00;69.60
40023;DHT22;25713;-35.352;149.036;2023-04-24T04:50:49;20.00;68.70
40023;DHT22;25713;-35.352;149.036;2023-04-24T04:53:19;20.00;70.40
40023;DHT22;25713;-35.352;149.036;2023-04-24T04:55:48;20.00;69.90
40023;DHT22;25713;-35.352;149.036;2023-04-24T04:58:21;20.00;70.80
40023;DHT22;25713;-35.352;149.036;2023-04-24T05:00:55;20.00;70.90
40023;DHT22;25713;-35.352;149.036;2023-04-24T05:03:32;19.90;71.40
40023;DHT22;25713;-35.352;149.036;2023-04-24T05:06:06;19.90;72.00
40023;DHT22;25713;-35.352;149.036;2023-04-24T05:08:39;19.90;72.30
40023;DHT22;25713;-35.352;149.036;2023-04-24T05:11:12;19.90;72.70
40023;DHT22;25713;-35.352;149.036;2023-04-24T05:13:44;19.90;72.40
40023;DHT22;25713;-35.352;149.036;2023-04-24T05:16:23;20.00;71.20
40023;DHT22;25713;-35.352;149.036;2023-04-24T05:18:55;20.00;70.10
40023;DHT22;25713;-35.352;149.036;2023-04-24T05:21:30;19.90;71.20
40023;DHT22;25713;-35.352;149.036;2023-04-24T05:23:59;19.90;70.00
40023;DHT22;25713;-35.352;149.036;2023-04-24T05:26:46;19.90;71.70
40023;DHT22;25713;-35.352;149.036;2023-04-24T05:29:20;19.90;72.10
40023;DHT22;25713;-35.352;149.036;2023-04-24T05:31:50;19.90;70.00
40023;DHT22;25713;-35.352;149.036;2023-04-24T05:34:19;19.90;71.90
40023;DHT22;25713;-35.352;149.036;2023-04-24T05:36:52;20.00;71.50
40023;DHT22;25713;-35.352;149.036;2023-04-24T05:39:22;19.90;72.00
40023;DHT22;25713;-35.352;149.036;2023-04-24T05:41:52;19.90;71.30
40023;DHT22;25713;-35.352;149.036;2023-04-24T05:44:23;19.90;70.10
40023;DHT22;25713;-35.352;149.036;2023-04-24T05:46:52;19.90;71.90
40023;DHT22;25713;-35.352;149.036;2023-04-24T05:49:22;19.90;71.30
40023;DHT22;25713;-35.352;149.036;2023-04-24T05:51:52;19.90;72.10
40023;DHT22;25713;-35.352;149.036;2023-04-24T05:54:21;19.90;72.40
40023;DHT22;25713;-35.352;149.036;2023-04-24T05:56:51;19.90;72.90
40023;DHT22;25713;-35.352;149.036;2023-04-24T05:59:32;19.80;73.10
40023;DHT22;25713;-35.352;149.036;2023-04-24T06:02:01;19.80;72.20
40023;DHT22;25713;-35.352;149.036;2023-04-24T06:04:31;19.80;71.70
40023;DHT22;25713;-35.352;149.036;2023-04-24T06:07:01;19.80;72.50
40023;DHT22;25713;-35.352;149.036;2023-04-24T06:09:30;19.80;73.00
40023;DHT22;25713;-35.352;149.036;2023-04-24T06:12:00;19.80;72.40
40023;DHT22;25713;-35.352;149.036;2023-04-24T06:14:39;19.80;71.80
40023;DHT22;25713;-35.352;149.036;2023-04-24T06:17:26;19.80;72.50
40023;DHT22;25713;-35.352;149.036;2023-04-24T06:19:55;19.70;72.70
40023;DHT22;25713;-35.352;149.036;2023-04-24T06:22:27;19.70;73.90
40023;DHT22;25713;-35.352;149.036;2023-04-24T06:24:56;19.70;74.30
40023;DHT22;25713;-35.352;149.036;2023-04-24T06:27:27;19.70;74.40
40023;DHT22;25713;-35.352;149.036;2023-04-24T06:29:58;19.70;74.30
40023;DHT22;25713;-35.352;149.036;2023-04-24T06:32:28;19.70;74.60
40023;DHT22;25713;-35.352;149.036;2023-04-24T06:34:58;19.70;74.20
40023;DHT22;25713;-35.352;149.036;2023-04-24T06:37:28;19.70;74.80
40023;DHT22;25713;-35.352;149.036;2023-04-24T06:39:58;19.70;75.10
40023;DHT22;25713;-35.352;149.036;2023-04-24T06:42:27;19.70;74.80
40023;DHT22;25713;-35.352;149.036;2023-04-24T06:45:00;19.70;74.60
40023;DHT22;25713;-35.352;149.036;2023-04-24T06:47:29;19.60;74.80
40023;DHT22;25713;-35.352;149.036;2023-04-24T06:49:59;19.60;74.50
40023;DHT22;25713;-35.352;149.036;2023-04-24T06:52:28;19.60;74.20
40023;DHT22;25713;-35.352;149.036;2023-04-24T06:55:01;19.60;75.20
40023;DHT22;25713;-35.352;149.036;2023-04-24T06:57:31;19.60;74.70
40023;DHT22;25713;-35.352;149.036;2023-04-24T07:00:03;19.60;75.60
40023;DHT22;25713;-35.352;149.036;2023-04-24T07:02:32;19.50;74.50
40023;DHT22;25713;-35.352;149.036;2023-04-24T07:05:02;19.60;75.20
40023;DHT22;25713;-35.352;149.036;2023-04-24T07:07:31;19.50;76.50
40023;DHT22;25713;-35.352;149.036;2023-04-24T07:10:00;19.50;76.60
40023;DHT22;25713;-35.352;149.036;2023-04-24T07:12:30;19.50;77.20
40023;DHT22;25713;-35.352;149.036;2023-04-24T07:15:02;19.50;77.60
40023;DHT22;25713;-35.352;149.036;2023-04-24T07:17:31;19.50;78.00
40023;DHT22;25713;-35.352;149.036;2023-04-24T07:20:01;19.50;78.40
40023;DHT22;25713;-35.352;149.036;2023-04-24T07:22:30;19.50;78.80
40023;DHT22;25713;-35.352;149.036;2023-04-24T07:24:59;19.50;78.90
40023;DHT22;25713;-35.352;149.036;2023-04-24T07:27:29;19.50;78.90
40023;DHT22;25713;-35.352;149.036;2023-04-24T07:29:58;19.50;79.70
40023;DHT22;25713;-35.352;149.036;2023-04-24T07:32:29;19.50;79.60
40023;DHT22;25713;-35.352;149.036;2023-04-24T07:34:59;19.50;79.80
40023;DHT22;25713;-35.352;149.036;2023-04-24T07:37:29;19.40;80.00
40023;DHT22;25713;-35.352;149.036;2023-04-24T07:39:58;19.40;80.30
40023;DHT22;25713;-35.352;149.036;2023-04-24T07:42:28;19.40;80.40
40023;DHT22;25713;-35.352;149.036;2023-04-24T07:44:57;19.40;80.60
40023;DHT22;25713;-35.352;149.036;2023-04-24T07:47:28;19.40;80.70
40023;DHT22;25713;-35.352;149.036;2023-04-24T07:49:58;19.40;80.90
40023;DHT22;25713;-35.352;149.036;2023-04-24T07:52:27;19.40;81.00
40023;DHT22;25713;-35.352;149.036;2023-04-24T07:54:57;19.40;81.10
40023;DHT22;25713;-35.352;149.036;2023-04-24T07:57:26;19.40;81.10
40023;DHT22;25713;-35.352;149.036;2023-04-24T07:59:56;19.40;81.40
40023;DHT22;25713;-35.352;149.036;2023-04-24T08:02:25;19.30;81.40
40023;DHT22;25713;-35.352;149.036;2023-04-24T08:04:56;19.30;81.50
40023;DHT22;25713;-35.352;149.036;2023-04-24T08:07:26;19.30;81.50
40023;DHT22;25713;-35.352;149.036;2023-04-24T08:09:56;19.30;81.50
40023;DHT22;25713;-35.352;149.036;2023-04-24T08:12:25;19.30;81.70
40023;DHT22;25713;-35.352;149.036;2023-04-24T08:14:55;19.20;81.80
40023;DHT22;25713;-35.352;149.036;2023-04-24T08:17:25;19.20;81.90
40023;DHT22;25713;-35.352;149.036;2023-04-24T08:19:56;19.20;81.90
40023;DHT22;25713;-35.352;149.036;2023-04-24T08:22:26;19.20;82.00
40023;DHT22;25713;-35.352;149.036;2023-04-24T08:24:55;19.20;81.90
40023;DHT22;25713;-35.352;149.036;2023-04-24T08:27:26;19.10;80.90
40023;DHT22;25713;-35.352;149.036;2023-04-24T08:29:55;19.10;81.80
40023;DHT22;25713;-35.352;149.036;2023-04-24T08:32:25;19.10;81.50
40023;DHT22;25713;-35.352;149.036;2023-04-24T08:34:56;19.00;81.90
40023;DHT22;25713;-35.352;149.036;2023-04-24T08:37:26;19.10;82.50
40023;DHT22;25713;-35.352;149.036;2023-04-24T08:39:56;19.10;82.20
40023;DHT22;25713;-35.352;149.036;2023-04-24T08:42:26;19.10;82.40
40023;DHT22;25713;-35.352;149.036;2023-04-24T08:44:57;19.10;82.20
40023;DHT22;25713;-35.352;149.036;2023-04-24T08:47:27;19.10;83.00
40023;DHT22;25713;-35.352;149.036;2023-04-24T08:49:58;19.10;83.00
40023;DHT22;25713;-35.352;149.036;2023-04-24T08:52:28;19.00;82.60
40023;DHT22;25713;-35.352;149.036;2023-04-24T08:54:57;19.00;82.50
40023;DHT22;25713;-35.352;149.036;2023-04-24T08:57:28;19.00;82.70
40023;DHT22;25713;-35.352;149.036;2023-04-24T08:59:58;19.00;82.70
40023;DHT22;25713;-35.352;149.036;2023-04-24T09:02:28;19.00;82.60
40023;DHT22;25713;-35.352;149.036;2023-04-24T09:04:59;19.00;82.70
40023;DHT22;25713;-35.352;149.036;2023-04-24T09:07:31;18.90;82.90
40023;DHT22;25713;-35.352;149.036;2023-04-24T09:10:02;19.00;83.20
40023;DHT22;25713;-35.352;149.036;2023-04-24T09:12:32;18.90;83.00
40023;DHT22;25713;-35.352;149.036;2023-04-24T09:15:02;18.90;83.20
40023;DHT22;25713;-35.352;149.036;2023-04-24T09:17:32;18.90;82.90
40023;DHT22;25713;-35.352;149.036;2023-04-24T09:20:04;18.90;83.00
40023;DHT22;25713;-35.352;149.036;2023-04-24T09:22:34;18.90;83.30
40023;DHT22;25713;-35.352;149.036;2023-04-24T09:25:07;18.90;83.90
40023;DHT22;25713;-35.352;149.036;2023-04-24T09:27:38;18.90;83.00
40023;DHT22;25713;-35.352;149.036;2023-04-24T09:30:08;18.90;83.40
40023;DHT22;25713;-35.352;149.036;2023-04-24T09:32:40;18.90;83.70
40023;DHT22;25713;-35.352;149.036;2023-04-24T09:35:13;18.90;83.30
40023;DHT22;25713;-35.352;149.036;2023-04-24T09:37:43;18.90;83.50
40023;DHT22;25713;-35.352;149.036;2023-04-24T09:40:15;18.80;83.90
40023;DHT22;25713;-35.352;149.036;2023-04-24T09:42:52;18.80;83.60
40023;DHT22;25713;-35.352;149.036;2023-04-24T09:45:22;18.80;83.70
40023;DHT22;25713;-35.352;149.036;2023-04-24T09:47:56;18.80;83.80
40023;DHT22;25713;-35.352;149.036;2023-04-24T09:50:29;18.80;83.70
40023;DHT22;25713;-35.352;149.036;2023-04-24T09:53:01;18.80;83.40
40023;DHT22;25713;-35.352;149.036;2023-04-24T09:55:31;18.80;83.50
40023;DHT22;25713;-35.352;149.036;2023-04-24T09:58:01;18.80;84.10
40023;DHT22;25713;-35.352;149.036;2023-04-24T10:00:31;18.70;84.00
40023;DHT22;25713;-35.352;149.036;2023-04-24T10:03:01;18.70;84.00
40023;DHT22;25713;-35.352;149.036;2023-04-24T10:05:33;18.70;84.40
40023;DHT22;25713;-35.352;149.036;2023-04-24T10:08:04;18.70;84.30
40023;DHT22;25713;-35.352;149.036;2023-04-24T10:10:35;18.70;84.40
40023;DHT22;25713;-35.352;149.036;2023-04-24T10:13:05;18.70;84.40
40023;DHT22;25713;-35.352;149.036;2023-04-24T10:15:35;18.70;84.60
40023;DHT22;25713;-35.352;149.036;2023-04-24T10:18:05;18.70;84.70
40023;DHT22;25713;-35.352;149.036;2023-04-24T10:20:38;18.70;84.60
40023;DHT22;25713;-35.352;149.036;2023-04-24T10:23:08;18.60;84.50
40023;DHT22;25713;-35.352;149.036;2023-04-24T10:25:38;18.60;85.10
40023;DHT22;25713;-35.352;149.036;2023-04-24T10:28:07;18.60;84.60
40023;DHT22;25713;-35.352;149.036;2023-04-24T10:30:37;18.60;84.50
40023;DHT22;25713;-35.352;149.036;2023-04-24T10:33:09;18.60;85.10
40023;DHT22;25713;-35.352;149.036;2023-04-24T10:35:42;18.60;84.60
40023;DHT22;25713;-35.352;149.036;2023-04-24T10:38:14;18.60;85.80
40023;DHT22;25713;-35.352;149.036;2023-04-24T10:40:44;18.60;84.90
40023;DHT22;25713;-35.352;149.036;2023-04-24T10:43:17;18.50;85.20
40023;DHT22;25713;-35.352;149.036;2023-04-24T10:46:02;18.50;84.90
40023;DHT22;25713;-35.352;149.036;2023-04-24T10:48:32;18.50;84.40
40023;DHT22;25713;-35.352;149.036;2023-04-24T10:51:04;18.50;85.00
40023;DHT22;25713;-35.352;149.036;2023-04-24T10:53:39;18.50;84.50
40023;DHT22;25713;-35.352;149.036;2023-04-24T10:56:09;18.50;84.20
40023;DHT22;25713;-35.352;149.036;2023-04-24T10:58:40;18.40;84.70
40023;DHT22;25713;-35.352;149.036;2023-04-24T11:01:10;18.50;83.90
40023;DHT22;25713;-35.352;149.036;2023-04-24T11:03:55;18.40;84.10
40023;DHT22;25713;-35.352;149.036;2023-04-24T11:06:32;18.40;84.40
40023;DHT22;25713;-35.352;149.036;2023-04-24T11:09:05;18.40;84.10
40023;DHT22;25713;-35.352;149.036;2023-04-24T11:11:36;18.40;83.10
40023;DHT22;25713;-35.352;149.036;2023-04-24T11:14:07;18.40;83.70
40023;DHT22;25713;-35.352;149.036;2023-04-24T11:16:50;18.40;84.00
40023;DHT22;25713;-35.352;149.036;2023-04-24T11:19:22;18.40;83.10
40023;DHT22;25713;-35.352;149.036;2023-04-24T11:21:59;18.40;83.60
40023;DHT22;25713;-35.352;149.036;2023-04-24T11:24:31;18.40;83.60
40023;DHT22;25713;-35.352;149.036;2023-04-24T11:27:07;18.30;83.80
40023;DHT22;25713;-35.352;149.036;2023-04-24T11:29:46;18.30;83.20
40023;DHT22;25713;-35.352;149.036;2023-04-24T11:32:26;18.30;83.40
40023;DHT22;25713;-35.352;149.036;2023-04-24T11:34:56;18.30;83.80
40023;DHT22;25713;-35.352;149.036;2023-04-24T11:37:29;18.30;83.50
40023;DHT22;25713;-35.352;149.036;2023-04-24T11:39:59;18.30;83.80
40023;DHT22;25713;-35.352;149.036;2023-04-24T11:42:29;18.30;83.40
40023;DHT22;25713;-35.352;149.036;2023-04-24T11:45:02;18.30;83.40
40023;DHT22;25713;-35.352;149.036;2023-04-24T11:47:36;18.20;83.30
40023;DHT22;25713;-35.352;149.036;2023-04-24T11:50:07;18.20;83.10
40023;DHT22;25713;-35.352;149.036;2023-04-24T11:52:41;18.20;83.70
40023;DHT22;25713;-35.352;149.036;2023-04-24T11:55:24;18.20;83.20
40023;DHT22;25713;-35.352;149.036;2023-04-24T11:57:55;18.20;84.00
40023;DHT22;25713;-35.352;149.036;2023-04-24T12:00:25;18.20;83.20
40023;DHT22;25713;-35.352;149.036;2023-04-24T12:03:05;18.20;83.30
40023;DHT22;25713;-35.352;149.036;2023-04-24T12:05:35;18.20;83.60
40023;DHT22;25713;-35.352;149.036;2023-04-24T12:08:06;18.20;83.20
40023;DHT22;25713;-35.352;149.036;2023-04-24T12:10:36;18.10;83.00
40023;DHT22;25713;-35.352;149.036;2023-04-24T12:13:08;18.10;83.10
40023;DHT22;25713;-35.352;149.036;2023-04-24T12:15:41;18.10;82.70
40023;DHT22;25713;-35.352;149.036;2023-04-24T12:18:12;18.10;83.10
40023;DHT22;25713;-35.352;149.036;2023-04-24T12:20:42;18.10;83.10
40023;DHT22;25713;-35.352;149.036;2023-04-24T12:23:13;18.10;83.10
40023;DHT22;25713;-35.352;149.036;2023-04-24T12:25:43;18.10;83.50
40023;DHT22;25713;-35.352;149.036;2023-04-24T12:28:12;18.10;83.50
40023;DHT22;25713;-35.352;149.036;2023-04-24T12:30:43;18.10;83.00
40023;DHT22;25713;-35.352;149.036;2023-04-24T12:33:16;18.00;83.00
40023;DHT22;25713;-35.352;149.036;2023-04-24T12:35:47;18.00;82.70
40023;DHT22;25713;-35.352;149.036;2023-04-24T12:38:23;18.00;82.80
40023;DHT22;25713;-35.352;149.036;2023-04-24T12:41:03;18.00;82.80
40023;DHT22;25713;-35.352;149.036;2023-04-24T12:43:33;18.00;82.90
40023;DHT22;25713;-35.352;149.036;2023-04-24T12:46:03;18.00;82.30
40023;DHT22;25713;-35.352;149.036;2023-04-24T12:48:32;18.00;83.10
40023;DHT22;25713;-35.352;149.036;2023-04-24T12:51:02;17.90;82.90
40023;DHT22;25713;-35.352;149.036;2023-04-24T12:53:33;18.00;83.00
40023;DHT22;25713;-35.352;149.036;2023-04-24T12:56:02;18.00;83.50
40023;DHT22;25713;-35.352;149.036;2023-04-24T12:58:31;17.90;83.00
40023;DHT22;25713;-35.352;149.036;2023-04-24T13:01:01;17.90;83.10
40023;DHT22;25713;-35.352;149.036;2023-04-24T13:03:31;17.90;83.00
40023;DHT22;25713;-35.352;149.036;2023-04-24T13:06:00;17.90;83.60
40023;DHT22;25713;-35.352;149.036;2023-04-24T13:08:32;17.90;83.60
40023;DHT22;25713;-35.352;149.036;2023-04-24T13:11:01;17.90;83.10
40023;DHT22;25713;-35.352;149.036;2023-04-24T13:13:31;17.90;83.40
40023;DHT22;25713;-35.352;149.036;2023-04-24T13:16:01;17.90;82.90
40023;DHT22;25713;-35.352;149.036;2023-04-24T13:18:30;17.90;83.10
40023;DHT22;25713;-35.352;149.036;2023-04-24T13:20:59;17.90;82.60
40023;DHT22;25713;-35.352;149.036;2023-04-24T13:23:29;17.90;82.60
40023;DHT22;25713;-35.352;149.036;2023-04-24T13:26:00;17.90;82.60
40023;DHT22;25713;-35.352;149.036;2023-04-24T13:28:29;17.80;82.70
40023;DHT22;25713;-35.352;149.036;2023-04-24T13:30:59;17.80;82.80
40023;DHT22;25713;-35.352;149.036;2023-04-24T13:33:28;17.80;82.70
40023;DHT22;25713;-35.352;149.036;2023-04-24T13:35:58;17.80;82.80
40023;DHT22;25713;-35.352;149.036;2023-04-24T13:38:27;17.80;82.70
40023;DHT22;25713;-35.352;149.036;2023-04-24T13:40:59;17.80;83.10
40023;DHT22;25713;-35.352;149.036;2023-04-24T13:43:29;17.80;82.30
40023;DHT22;25713;-35.352;149.036;2023-04-24T13:45:59;17.80;82.40
40023;DHT22;25713;-35.352;149.036;2023-04-24T13:48:28;17.70;81.40
40023;DHT22;25713;-35.352;149.036;2023-04-24T13:50:58;17.80;81.90
40023;DHT22;25713;-35.352;149.036;2023-04-24T13:53:27;17.70;82.00
40023;DHT22;25713;-35.352;149.036;2023-04-24T13:55:59;17.70;81.60
40023;DHT22;25713;-35.352;149.036;2023-04-24T13:58:28;17.70;81.10
40023;DHT22;25713;-35.352;149.036;2023-04-24T14:00:58;17.70;80.80
40023;DHT22;25713;-35.352;149.036;2023-04-24T14:03:27;17.70;81.20
40023;DHT22;25713;-35.352;149.036;2023-04-24T14:05:56;17.70;81.40
40023;DHT22;25713;-35.352;149.036;2023-04-24T14:08:26;17.70;81.70
40023;DHT22;25713;-35.352;149.036;2023-04-24T14:10:55;17.60;81.50
40023;DHT22;25713;-35.352;149.036;2023-04-24T14:13:27;17.60;81.60
40023;DHT22;25713;-35.352;149.036;2023-04-24T14:15:56;17.60;81.40
40023;DHT22;25713;-35.352;149.036;2023-04-24T14:18:26;17.60;80.60
40023;DHT22;25713;-35.352;149.036;2023-04-24T14:20:56;17.60;80.50
40023;DHT22;25713;-35.352;149.036;2023-04-24T14:23:25;17.60;81.20
40023;DHT22;25713;-35.352;149.036;2023-04-24T14:25:54;17.60;80.60
40023;DHT22;25713;-35.352;149.036;2023-04-24T14:28:25;17.60;80.10
40023;DHT22;25713;-35.352;149.036;2023-04-24T14:30:55;17.50;80.70
40023;DHT22;25713;-35.352;149.036;2023-04-24T14:33:24;17.50;80.30
40023;DHT22;25713;-35.352;149.036;2023-04-24T14:35:54;17.50;80.40
40023;DHT22;25713;-35.352;149.036;2023-04-24T14:38:23;17.50;80.70
40023;DHT22;25713;-35.352;149.036;2023-04-24T14:40:53;17.50;80.20
40023;DHT22;25713;-35.352;149.036;2023-04-24T14:43:22;17.50;80.10
40023;DHT22;25713;-35.352;149.036;2023-04-24T14:45:54;17.50;80.40
40023;DHT22;25713;-35.352;149.036;2023-04-24T14:48:23;17.50;80.00
40023;DHT22;25713;-35.352;149.036;2023-04-24T15:51:23;16.90;80.00
40023;DHT22;25713;-35.352;149.036;2023-04-24T15:53:52;16.90;80.40
40023;DHT22;25713;-35.352;149.036;2023-04-24T15:56:22;16.90;80.20
40023;DHT22;25713;-35.352;149.036;2023-04-24T15:58:51;16.90;80.30
40023;DHT22;25713;-35.352;149.036;2023-04-24T16:01:21;16.90;80.10
40023;DHT22;25713;-35.352;149.036;2023-04-24T16:03:50;16.90;79.30
40023;DHT22;25713;-35.352;149.036;2023-04-24T16:06:22;16.90;79.60
40023;DHT22;25713;-35.352;149.036;2023-04-24T16:08:51;16.90;79.50
40023;DHT22;25713;-35.352;149.036;2023-04-24T16:11:21;16.90;78.30